Time;durP1;ratioP1;P1;durP2;ratioP2;P2;SDS_P1;SDS_P2;PMS_P1;PMS_P2;Temp;Humidity;BMP_temperature;BMP_pressure;BME280_temperature;BME280_humidity;BME280_pressure;Samples;Min_cycle;Max_cycle;Signal;HPM_P1;HPM_P2
2022/12/03 00:01:41;;;;;;;14.18;9.45;;;4.70;99.90;;;;;;5028071;28;20413;-75
2022/12/03 00:04:07;;;;;;;14.23;9.48;;;4.70;99.90;;;;;;5017275;28;20908;-74
2022/12/03 00:06:32;;;;;;;15.83;10.10;;;4.80;99.90;;;;;;5030676;28;20406;-74
2022/12/03 00:08:58;;;;;;;16.77;10.18;;;4.80;99.90;;;;;;5030807;28;20430;-74
2022/12/03 00:11:23;;;;;;;14.73;9.50;;;4.80;99.90;;;;;;5013265;28;20411;-74
2022/12/03 00:13:49;;;;;;;17.00;10.25;;;4.80;99.90;;;;;;5027250;28;20901;-74
2022/12/03 00:16:15;;;;;;;15.10;9.83;;;4.80;99.90;;;;;;5016870;28;20418;-74
2022/12/03 00:18:40;;;;;;;15.27;10.27;;;4.80;99.90;;;;;;5033993;28;20969;-74
2022/12/03 00:21:06;;;;;;;16.52;10.48;;;4.80;99.90;;;;;;5016855;28;20443;-74
2022/12/03 00:23:31;;;;;;;14.43;9.90;;;4.80;99.90;;;;;;5033512;28;20407;-74
2022/12/03 00:25:57;;;;;;;15.00;9.85;;;4.80;99.90;;;;;;5019320;28;20907;-74
2022/12/03 00:28:22;;;;;;;16.30;10.10;;;4.80;99.90;;;;;;5027686;28;20403;-74
2022/12/03 00:30:48;;;;;;;15.20;9.73;;;4.80;99.90;;;;;;5019662;28;20856;-74
2022/12/03 00:33:14;;;;;;;13.93;9.68;;;4.80;99.90;;;;;;5014728;28;20473;-74
2022/12/03 00:35:39;;;;;;;14.63;10.20;;;4.80;99.90;;;;;;5012193;28;20403;-74
2022/12/03 00:38:05;;;;;;;14.55;10.07;;;4.80;99.90;;;;;;5018451;28;20416;-74
2022/12/03 00:40:30;;;;;;;14.83;10.07;;;4.80;99.90;;;;;;5010150;28;20522;-74
2022/12/03 00:42:56;;;;;;;14.57;9.83;;;4.90;99.90;;;;;;5027522;28;20901;-74
2022/12/03 00:45:22;;;;;;;15.20;9.50;;;4.80;99.90;;;;;;5019798;28;20409;-74
2022/12/03 00:47:47;;;;;;;14.17;9.63;;;4.90;99.90;;;;;;5024062;28;20401;-74
2022/12/03 00:50:13;;;;;;;16.50;9.93;;;4.80;99.90;;;;;;5029939;28;20469;-74
2022/12/03 00:52:38;;;;;;;16.30;10.40;;;4.90;99.90;;;;;;5017641;28;20446;-72
2022/12/03 00:55:04;;;;;;;15.67;10.40;;;4.80;99.90;;;;;;5022244;28;20455;-72
2022/12/03 00:57:30;;;;;;;16.05;10.25;;;4.80;99.90;;;;;;5037347;28;20405;-72
2022/12/03 00:59:55;;;;;;;16.95;10.70;;;4.80;99.90;;;;;;5027922;28;20454;-73
2022/12/03 01:02:21;;;;;;;16.30;10.40;;;4.90;99.90;;;;;;5027649;28;20398;-73
2022/12/03 01:04:47;;;;;;;15.57;9.98;;;4.80;99.90;;;;;;5018151;28;20416;-72
2022/12/03 01:07:12;;;;;;;15.93;10.30;;;4.80;99.90;;;;;;5010607;28;20434;-72
2022/12/03 01:09:38;;;;;;;15.55;10.85;;;4.80;99.90;;;;;;5029914;28;20714;-72
2022/12/03 01:12:03;;;;;;;14.83;9.93;;;4.90;99.90;;;;;;5033429;28;20417;-72
2022/12/03 01:14:29;;;;;;;15.73;10.07;;;4.90;99.90;;;;;;5016703;28;20857;-72
2022/12/03 01:16:55;;;;;;;15.50;9.68;;;4.90;99.90;;;;;;5007094;28;20731;-73
2022/12/03 01:19:20;;;;;;;14.87;10.10;;;4.90;99.90;;;;;;5033487;28;20477;-73
2022/12/03 01:21:48;;;;;;;14.65;10.20;;;4.90;99.90;;;;;;5028353;28;20407;-73
2022/12/03 01:24:14;;;;;;;14.45;9.95;;;4.90;99.90;;;;;;5011142;28;20411;-73
2022/12/03 01:26:40;;;;;;;14.93;10.20;;;4.90;99.90;;;;;;5029471;28;20446;-73
2022/12/03 01:29:06;;;;;;;16.85;10.68;;;4.90;99.90;;;;;;5033403;28;20434;-72
2022/12/03 01:34:16;;;;;;;16.20;11.03;;;4.90;99.90;;;;;;5030541;28;20409;-72
2022/12/03 01:36:41;;;;;;;17.13;11.13;;;4.90;99.90;;;;;;5036128;28;20468;-73
2022/12/03 01:39:07;;;;;;;16.65;10.65;;;4.80;99.90;;;;;;5039990;28;20412;-73
2022/12/03 01:41:34;;;;;;;16.10;10.38;;;4.90;99.90;;;;;;5031944;28;20406;-72
2022/12/03 01:44:01;;;;;;;17.20;10.85;;;4.80;99.90;;;;;;5040931;28;20470;-73
2022/12/03 01:46:36;;;;;;;15.85;10.40;;;4.90;99.90;;;;;;5038596;28;20552;-72
2022/12/03 01:49:02;;;;;;;16.08;10.50;;;4.80;99.90;;;;;;5038270;28;20750;-72
2022/12/03 01:51:29;;;;;;;16.20;10.63;;;4.90;99.90;;;;;;5019383;28;20418;-72
2022/12/03 01:53:55;;;;;;;15.33;10.43;;;4.90;99.90;;;;;;5032676;28;20441;-73
2022/12/03 01:56:20;;;;;;;16.17;10.27;;;4.90;99.90;;;;;;5032842;28;20445;-73
2022/12/03 01:58:46;;;;;;;15.23;10.38;;;4.80;99.90;;;;;;5034107;28;20431;-73
2022/12/03 02:01:15;;;;;;;14.25;9.82;;;4.90;99.90;;;;;;5021059;28;20440;-73
2022/12/03 02:03:41;;;;;;;16.13;11.17;;;4.80;99.90;;;;;;5033756;28;20411;-73
2022/12/03 02:06:28;;;;;;;15.98;10.45;;;4.80;99.90;;;;;;5030902;28;20547;-73
2022/12/03 02:08:58;;;;;;;17.45;10.73;;;4.80;99.90;;;;;;5032625;28;20454;-73
2022/12/03 02:11:26;;;;;;;16.77;10.82;;;4.80;99.90;;;;;;5031088;28;20903;-73
2022/12/03 02:13:55;;;;;;;16.15;10.88;;;4.80;99.90;;;;;;5030470;28;20411;-73
2022/12/03 02:16:21;;;;;;;16.70;10.75;;;4.90;99.90;;;;;;5033999;28;20409;-73
2022/12/03 02:18:47;;;;;;;17.27;11.15;;;4.80;99.90;;;;;;5024416;28;20408;-73
2022/12/03 02:21:12;;;;;;;16.25;10.63;;;4.80;99.90;;;;;;5030293;28;20480;-73
2022/12/03 02:23:41;;;;;;;17.83;11.40;;;4.80;99.90;;;;;;5023034;28;20840;-73
2022/12/03 02:26:06;;;;;;;17.35;11.40;;;4.80;99.90;;;;;;5032808;28;20610;-73
2022/12/03 02:28:32;;;;;;;17.00;11.02;;;4.80;99.90;;;;;;5033248;28;21247;-72
2022/12/03 02:30:58;;;;;;;16.60;10.80;;;4.80;99.90;;;;;;5032666;28;20401;-73
2022/12/03 02:33:23;;;;;;;18.37;11.80;;;4.80;99.90;;;;;;5029740;28;20434;-73
2022/12/03 02:35:49;;;;;;;16.23;10.98;;;4.80;99.90;;;;;;5033800;28;20399;-73
2022/12/03 02:38:20;;;;;;;15.45;10.80;;;4.80;99.90;;;;;;5038604;28;20401;-73
2022/12/03 02:40:48;;;;;;;16.80;11.70;;;4.80;99.90;;;;;;5017294;28;20430;-73
2022/12/03 02:43:16;;;;;;;18.00;11.63;;;4.70;99.90;;;;;;5011699;28;20917;-73
2022/12/03 02:45:45;;;;;;;20.88;12.07;;;4.70;99.90;;;;;;5016757;28;20804;-73
2022/12/03 02:48:15;;;;;;;16.90;11.18;;;4.70;99.90;;;;;;5029160;28;20449;-73
2022/12/03 02:50:45;;;;;;;17.45;11.30;;;4.70;99.90;;;;;;5028836;28;20410;-73
2022/12/03 02:53:19;;;;;;;18.15;12.00;;;4.60;99.90;;;;;;5022131;28;20407;-73
2022/12/03 02:55:45;;;;;;;18.38;12.02;;;4.70;99.90;;;;;;5025040;28;20502;-72
2022/12/03 02:58:11;;;;;;;17.50;11.48;;;4.60;99.90;;;;;;5029224;28;20909;-73
2022/12/03 03:00:37;;;;;;;17.95;11.68;;;4.70;99.90;;;;;;5010720;28;20466;-72
2022/12/03 03:03:05;;;;;;;17.75;11.85;;;4.60;99.90;;;;;;5011420;28;20438;-73
2022/12/03 03:05:32;;;;;;;18.83;12.43;;;4.60;99.90;;;;;;5036491;28;20393;-73
2022/12/03 03:07:59;;;;;;;17.43;11.87;;;4.60;99.90;;;;;;5038590;28;20525;-72
2022/12/03 03:10:25;;;;;;;19.13;12.40;;;4.60;99.90;;;;;;5043578;28;20776;-72
2022/12/03 03:13:12;;;;;;;19.83;12.10;;;4.60;99.90;;;;;;4987360;28;20481;-72
2022/12/03 03:15:39;;;;;;;21.52;12.60;;;4.60;99.90;;;;;;5028989;28;20404;-73
2022/12/03 03:18:06;;;;;;;18.35;11.88;;;4.60;99.90;;;;;;5033235;28;20455;-72
2022/12/03 03:20:32;;;;;;;19.95;12.27;;;4.60;99.90;;;;;;5032721;28;20518;-75
2022/12/03 03:23:10;;;;;;;19.83;12.73;;;4.70;99.90;;;;;;5006414;28;20992;-72
2022/12/03 03:25:37;;;;;;;20.25;12.57;;;4.70;99.90;;;;;;5032374;28;20988;-72
2022/12/03 03:28:03;;;;;;;18.90;12.30;;;4.70;99.90;;;;;;5010911;28;20407;-73
2022/12/03 03:30:29;;;;;;;19.98;12.73;;;4.60;99.90;;;;;;5041547;28;20438;-72
2022/12/03 03:32:54;;;;;;;20.92;12.73;;;4.60;99.90;;;;;;4995461;28;20440;-72
2022/12/03 03:35:20;;;;;;;17.00;12.07;;;4.60;99.90;;;;;;5022764;28;20411;-72
2022/12/03 03:37:46;;;;;;;19.23;12.13;;;4.60;99.90;;;;;;5033447;28;20403;-72
2022/12/03 03:40:11;;;;;;;20.17;13.47;;;4.60;99.90;;;;;;5021656;28;20460;-72
2022/12/03 03:42:37;;;;;;;20.13;12.38;;;4.60;99.90;;;;;;5018779;28;20490;-72
2022/12/03 03:45:05;;;;;;;18.20;11.82;;;4.60;99.90;;;;;;5037498;28;20410;-72
2022/12/03 03:47:31;;;;;;;18.80;12.30;;;4.60;99.90;;;;;;5024759;28;20486;-72
2022/12/03 03:49:57;;;;;;;18.75;11.90;;;4.50;99.90;;;;;;5035198;28;20847;-72
2022/12/03 03:52:24;;;;;;;20.30;12.83;;;4.50;99.90;;;;;;5022360;28;20455;-74
2022/12/03 03:54:49;;;;;;;26.05;13.23;;;4.50;99.90;;;;;;5025894;28;20489;-72
2022/12/03 03:57:15;;;;;;;18.55;12.48;;;4.40;99.90;;;;;;5027924;28;20429;-72
2022/12/03 03:59:41;;;;;;;19.90;12.30;;;4.40;99.90;;;;;;5010594;28;20435;-72
2022/12/03 04:02:20;;;;;;;17.17;11.63;;;4.40;99.90;;;;;;5028032;28;20399;-72
2022/12/03 04:04:46;;;;;;;19.70;12.07;;;4.40;99.90;;;;;;5026523;28;20419;-72
2022/12/03 04:07:12;;;;;;;19.80;12.68;;;4.40;99.90;;;;;;5011075;28;20409;-72
2022/12/03 04:09:38;;;;;;;19.20;12.63;;;4.30;99.90;;;;;;5015471;28;20765;-72
2022/12/03 04:14:48;;;;;;;19.52;12.70;;;4.30;99.90;;;;;;5033269;28;20420;-72
2022/12/03 04:17:13;;;;;;;19.30;12.40;;;4.30;99.90;;;;;;5035127;28;20407;-72
2022/12/03 04:19:39;;;;;;;22.38;13.38;;;4.20;99.90;;;;;;5030910;28;20477;-72
2022/12/03 04:24:49;;;;;;;20.02;12.85;;;4.20;99.90;;;;;;5036048;28;20753;-73
2022/12/03 04:29:59;;;;;;;21.10;13.73;;;4.20;99.90;;;;;;5029756;28;20419;-72
2022/12/03 04:37:53;;;;;;;19.73;12.37;;;4.20;99.90;;;;;;5033159;28;20927;-72
2022/12/03 04:43:03;;;;;;;20.52;13.10;;;4.10;99.90;;;;;;5030673;28;20444;-74
2022/12/03 04:45:29;;;;;;;20.40;12.70;;;4.10;99.90;;;;;;5030371;28;20411;-74
2022/12/03 04:47:54;;;;;;;21.83;13.68;;;4.10;99.90;;;;;;5017577;28;20407;-74
2022/12/03 04:50:20;;;;;;;20.70;13.97;;;4.20;99.90;;;;;;5013641;28;20411;-74
2022/12/03 04:52:46;;;;;;;21.00;13.68;;;4.10;99.90;;;;;;5033813;28;20472;-74
2022/12/03 04:55:11;;;;;;;21.43;12.97;;;4.10;99.90;;;;;;5031120;28;20407;-72
2022/12/03 04:57:37;;;;;;;19.88;12.43;;;4.10;99.90;;;;;;5030507;28;20893;-72
2022/12/03 05:00:04;;;;;;;20.87;12.93;;;4.10;99.90;;;;;;5002305;28;20513;-72
2022/12/03 05:02:29;;;;;;;20.77;13.10;;;4.10;99.90;;;;;;5033706;28;20438;-72
2022/12/03 05:04:55;;;;;;;20.67;13.23;;;4.10;99.90;;;;;;5034223;28;20944;-72
2022/12/03 05:07:21;;;;;;;22.15;14.18;;;4.10;99.90;;;;;;5030742;28;20411;-74
2022/12/03 05:09:46;;;;;;;20.80;13.30;;;4.10;99.90;;;;;;5034488;28;20406;-72
2022/12/03 05:12:12;;;;;;;21.40;13.17;;;4.10;99.90;;;;;;5030934;28;20488;-73
2022/12/03 05:14:37;;;;;;;20.87;12.97;;;4.10;99.90;;;;;;5034755;28;20403;-72
2022/12/03 05:17:03;;;;;;;21.63;13.63;;;4.10;99.90;;;;;;5030703;28;21010;-72
2022/12/03 05:22:13;;;;;;;22.05;13.13;;;4.10;99.90;;;;;;5017744;28;20412;-73
2022/12/03 05:24:38;;;;;;;22.05;13.50;;;4.00;99.90;;;;;;5039821;28;20405;-75
2022/12/03 05:27:04;;;;;;;22.10;13.07;;;4.00;99.90;;;;;;5039796;28;20409;-75
2022/12/03 05:29:30;;;;;;;22.00;12.40;;;4.10;99.90;;;;;;5035327;28;21346;-73
2022/12/03 05:31:55;;;;;;;20.20;12.53;;;4.10;99.90;;;;;;5015457;28;20498;-73
2022/12/03 05:34:21;;;;;;;18.77;12.10;;;4.10;99.90;;;;;;5042003;28;20395;-72
2022/12/03 05:36:46;;;;;;;20.83;12.82;;;4.00;99.90;;;;;;5036428;28;20409;-72
2022/12/03 05:39:12;;;;;;;19.07;12.43;;;4.10;99.90;;;;;;5043166;28;20403;-73
2022/12/03 05:44:21;;;;;;;22.08;11.98;;;4.00;99.90;;;;;;5032876;28;20411;-74
2022/12/03 05:46:47;;;;;;;19.60;12.17;;;4.00;99.90;;;;;;5039915;28;20429;-74
2022/12/03 05:49:12;;;;;;;19.23;11.80;;;4.10;99.90;;;;;;5036907;28;20482;-73
2022/12/03 05:51:38;;;;;;;19.30;11.50;;;4.00;99.90;;;;;;5030851;28;20812;-74
2022/12/03 05:54:04;;;;;;;19.60;12.40;;;4.10;99.90;;;;;;5020791;28;20898;-73
2022/12/03 05:56:29;;;;;;;20.10;11.83;;;4.00;99.90;;;;;;5041212;28;20880;-74
2022/12/03 05:58:55;;;;;;;17.80;11.17;;;4.00;99.90;;;;;;5025096;28;20411;-74
2022/12/03 06:01:20;;;;;;;18.83;11.15;;;4.00;99.90;;;;;;5033748;28;20941;-74
2022/12/03 06:03:46;;;;;;;18.67;11.57;;;4.00;99.90;;;;;;5030345;28;20449;-74
2022/12/03 06:06:12;;;;;;;18.65;11.23;;;4.00;99.90;;;;;;5018305;28;20409;-73
2022/12/03 06:08:37;;;;;;;18.17;10.83;;;4.00;99.90;;;;;;5031651;28;20403;-73
2022/12/03 06:11:03;;;;;;;19.83;11.13;;;4.00;99.90;;;;;;5013447;28;20465;-73
2022/12/03 06:13:28;;;;;;;18.03;10.80;;;4.00;99.90;;;;;;5031081;28;20404;-73
2022/12/03 06:15:54;;;;;;;19.97;11.33;;;4.00;99.90;;;;;;5003351;28;20816;-73
2022/12/03 06:18:19;;;;;;;18.98;11.82;;;4.00;99.90;;;;;;5030253;28;20478;-73
2022/12/03 06:20:45;;;;;;;19.80;11.07;;;4.00;99.90;;;;;;5020878;28;20963;-73
2022/12/03 06:23:10;;;;;;;19.10;11.15;;;3.90;99.90;;;;;;5029871;28;20456;-73
2022/12/03 06:25:36;;;;;;;18.50;11.13;;;3.90;99.90;;;;;;5003535;28;20408;-74
2022/12/03 06:28:02;;;;;;;19.27;11.75;;;3.90;99.90;;;;;;5041967;28;20390;-74
2022/12/03 06:30:27;;;;;;;18.48;11.73;;;3.90;99.90;;;;;;5030910;28;20434;-74
2022/12/03 06:32:53;;;;;;;18.90;11.50;;;3.90;99.90;;;;;;5030018;28;21312;-73
2022/12/03 06:35:19;;;;;;;19.40;11.65;;;3.90;99.90;;;;;;5014627;28;20411;-74
2022/12/03 06:37:44;;;;;;;18.37;11.60;;;4.00;99.90;;;;;;5032802;28;20414;-73
2022/12/03 06:40:10;;;;;;;19.93;12.03;;;3.90;99.90;;;;;;5032975;28;20982;-73
2022/12/03 06:42:36;;;;;;;18.42;11.68;;;3.90;99.90;;;;;;5011225;28;20774;-74
2022/12/03 06:45:02;;;;;;;19.23;11.77;;;3.90;99.90;;;;;;5031395;28;20422;-74
2022/12/03 06:47:27;;;;;;;19.93;11.37;;;3.90;99.90;;;;;;5019381;28;20763;-74
2022/12/03 06:49:53;;;;;;;20.37;12.00;;;3.90;99.90;;;;;;5031364;28;20403;-73
2022/12/03 06:52:18;;;;;;;19.83;11.68;;;3.90;99.90;;;;;;5028999;28;21261;-73
2022/12/03 06:54:44;;;;;;;20.20;11.67;;;3.90;99.90;;;;;;5013158;28;20411;-74
2022/12/03 06:57:10;;;;;;;20.75;11.65;;;3.80;99.90;;;;;;5013753;28;20913;-73
2022/12/03 06:59:36;;;;;;;18.10;11.47;;;3.80;99.90;;;;;;5017804;28;20430;-73
2022/12/03 07:02:02;;;;;;;19.58;11.38;;;3.90;99.90;;;;;;5011771;28;20411;-73
2022/12/03 07:04:28;;;;;;;18.60;11.70;;;3.80;99.90;;;;;;5014673;28;21003;-73
2022/12/03 07:06:53;;;;;;;19.77;11.73;;;3.80;99.90;;;;;;5018846;28;20408;-73
2022/12/03 07:09:19;;;;;;;18.80;11.55;;;3.80;99.90;;;;;;5032762;28;20773;-73
2022/12/03 07:11:44;;;;;;;17.60;11.02;;;3.80;99.90;;;;;;5032062;28;20427;-73
2022/12/03 07:14:10;;;;;;;19.23;11.23;;;3.80;99.90;;;;;;5019217;28;20785;-73
2022/12/03 07:16:36;;;;;;;19.42;11.40;;;3.80;99.90;;;;;;5031977;28;20415;-74
2022/12/03 07:19:04;;;;;;;20.90;11.82;;;3.80;99.90;;;;;;5029520;28;20408;-73
2022/12/03 07:21:29;;;;;;;20.27;11.25;;;3.80;99.90;;;;;;5028174;28;20434;-73
2022/12/03 07:23:55;;;;;;;19.25;11.45;;;3.80;99.90;;;;;;5037034;28;20469;-74
2022/12/03 07:26:21;;;;;;;18.00;11.00;;;3.70;99.90;;;;;;5033718;28;20405;-73
2022/12/03 07:28:47;;;;;;;19.10;12.43;;;3.70;99.90;;;;;;5041114;28;20442;-74
2022/12/03 07:31:13;;;;;;;19.33;11.00;;;3.70;99.90;;;;;;5026429;28;20440;-73
2022/12/03 07:33:38;;;;;;;19.27;11.97;;;3.70;99.90;;;;;;5028419;28;20407;-73
2022/12/03 07:36:04;;;;;;;18.67;10.97;;;3.70;99.90;;;;;;5029090;28;20460;-73
2022/12/03 07:38:30;;;;;;;20.85;12.65;;;3.70;99.90;;;;;;5027998;28;20399;-73
2022/12/03 07:40:55;;;;;;;22.38;12.75;;;3.70;99.90;;;;;;5008002;28;20435;-73
2022/12/03 07:43:21;;;;;;;19.93;12.13;;;3.60;99.90;;;;;;5030506;28;20784;-73
2022/12/03 07:45:47;;;;;;;21.83;12.30;;;3.60;99.90;;;;;;5030739;28;20432;-73
2022/12/03 07:48:13;;;;;;;22.83;13.63;;;3.60;99.90;;;;;;5013713;28;20433;-73
2022/12/03 07:50:38;;;;;;;20.90;12.77;;;3.60;99.90;;;;;;5028287;28;20403;-74
2022/12/03 07:53:04;;;;;;;22.55;13.98;;;3.60;99.90;;;;;;5035254;28;20431;-75
2022/12/03 07:55:29;;;;;;;22.33;13.13;;;3.50;99.90;;;;;;5029209;28;20509;-75
2022/12/03 07:57:55;;;;;;;21.03;12.87;;;3.50;99.90;;;;;;5013509;28;20442;-74
2022/12/03 08:00:21;;;;;;;24.25;12.68;;;3.50;99.90;;;;;;4999280;28;21506;-75
2022/12/03 08:02:47;;;;;;;23.00;13.32;;;3.50;99.90;;;;;;5010849;28;20434;-75
2022/12/03 08:05:12;;;;;;;23.83;14.13;;;3.50;99.90;;;;;;5006219;28;20460;-74
2022/12/03 08:07:38;;;;;;;20.05;13.30;;;3.50;99.90;;;;;;5024304;28;20423;-75
2022/12/03 08:10:05;;;;;;;22.52;13.32;;;3.50;99.90;;;;;;5006548;28;20519;-74
2022/12/03 08:12:40;;;;;;;22.23;12.57;;;3.50;99.90;;;;;;4986064;28;20432;-74
2022/12/03 08:15:12;;;;;;;22.65;13.32;;;3.50;99.90;;;;;;4978534;28;20428;-75
2022/12/03 08:17:39;;;;;;;23.55;13.68;;;3.50;99.90;;;;;;5000292;28;20425;-74
2022/12/03 08:20:19;;;;;;;23.33;13.27;;;3.50;99.90;;;;;;4986163;28;20438;-81
2022/12/03 08:22:48;;;;;;;22.75;12.98;;;3.50;99.90;;;;;;4985260;28;20434;-74
2022/12/03 08:25:16;;;;;;;22.25;13.65;;;3.50;99.90;;;;;;5007735;28;20403;-74
2022/12/03 08:27:41;;;;;;;24.45;13.05;;;3.50;99.90;;;;;;5011931;28;20962;-74
2022/12/03 08:30:10;;;;;;;21.57;13.33;;;3.50;99.90;;;;;;5005442;28;20423;-74
2022/12/03 08:32:36;;;;;;;23.10;13.57;;;3.50;99.90;;;;;;4997985;28;20498;-74
2022/12/03 08:35:08;;;;;;;23.83;13.98;;;3.40;99.90;;;;;;4995949;28;21015;-74
2022/12/03 08:37:35;;;;;;;22.70;14.18;;;3.50;99.90;;;;;;4997528;28;20441;-74
2022/12/03 08:40:00;;;;;;;24.70;14.73;;;3.50;99.90;;;;;;4999058;28;20438;-72
2022/12/03 08:42:42;;;;;;;24.92;14.40;;;3.40;99.90;;;;;;5003955;28;20406;-71
2022/12/03 08:45:38;;;;;;;24.13;14.15;;;3.40;99.90;;;;;;5008654;28;20937;-72
2022/12/03 08:48:18;;;;;;;23.17;13.20;;;3.50;99.90;;;;;;4998825;28;20435;-71
2022/12/03 08:50:44;;;;;;;23.15;14.05;;;3.40;99.90;;;;;;4989602;28;20924;-71
2022/12/03 08:53:22;;;;;;;22.67;14.38;;;3.40;99.90;;;;;;5017937;28;20407;-72
2022/12/03 08:55:51;;;;;;;23.42;14.25;;;3.40;99.90;;;;;;5009591;28;20403;-71
2022/12/03 08:58:22;;;;;;;23.38;14.05;;;3.40;99.90;;;;;;4994618;28;20414;-72
2022/12/03 09:01:11;;;;;;;23.02;13.88;;;3.40;99.90;;;;;;5009253;28;20980;-72
2022/12/03 09:03:43;;;;;;;24.38;14.73;;;3.40;99.90;;;;;;4996513;28;20512;-72
2022/12/03 09:06:08;;;;;;;24.80;15.23;;;3.40;99.90;;;;;;5000023;28;20474;-71
2022/12/03 09:08:34;;;;;;;26.23;14.53;;;3.40;99.90;;;;;;5002851;28;20470;-72
2022/12/03 09:11:00;;;;;;;23.90;14.87;;;3.40;99.90;;;;;;5012352;28;20403;-74
2022/12/03 09:13:25;;;;;;;23.95;14.32;;;3.40;99.90;;;;;;5011178;28;20412;-74
2022/12/03 09:15:51;;;;;;;24.87;14.17;;;3.40;99.90;;;;;;5007404;28;20400;-73
2022/12/03 09:18:16;;;;;;;23.95;14.18;;;3.40;99.90;;;;;;4989699;28;20409;-73
2022/12/03 09:20:42;;;;;;;23.30;13.80;;;3.40;99.90;;;;;;5015143;28;20785;-74
2022/12/03 09:23:08;;;;;;;23.98;14.32;;;3.40;99.90;;;;;;5007822;28;20412;-73
2022/12/03 09:25:33;;;;;;;22.83;13.52;;;3.40;99.90;;;;;;5007905;28;20427;-74
2022/12/03 09:27:59;;;;;;;22.57;14.03;;;3.40;99.90;;;;;;5006557;28;20546;-73
2022/12/03 09:30:25;;;;;;;23.08;14.05;;;3.40;99.90;;;;;;5018979;28;20437;-74
2022/12/03 09:32:50;;;;;;;22.47;13.93;;;3.40;99.90;;;;;;4990705;28;20414;-74
2022/12/03 09:35:16;;;;;;;22.60;14.10;;;3.40;99.90;;;;;;4991620;28;20768;-74
2022/12/03 09:37:42;;;;;;;22.17;13.60;;;3.40;99.90;;;;;;4991528;28;20462;-73
2022/12/03 09:40:08;;;;;;;25.17;14.50;;;3.40;99.90;;;;;;5009433;28;20865;-73
2022/12/03 09:42:35;;;;;;;26.90;15.20;;;3.40;99.90;;;;;;4992242;28;20560;-74
2022/12/03 09:45:04;;;;;;;24.73;15.23;;;3.40;99.90;;;;;;5019652;28;20952;-74
2022/12/03 09:47:30;;;;;;;25.67;15.23;;;3.40;99.90;;;;;;4992669;28;21002;-73
2022/12/03 09:49:57;;;;;;;26.40;15.13;;;3.40;99.90;;;;;;5016834;28;20444;-74
2022/12/03 09:52:25;;;;;;;26.37;15.17;;;3.40;99.90;;;;;;5006825;28;20416;-74
2022/12/03 09:54:51;;;;;;;25.27;14.45;;;3.40;99.90;;;;;;5004241;28;20424;-74
2022/12/03 09:57:18;;;;;;;23.58;14.43;;;3.50;99.90;;;;;;5020686;28;20539;-74
2022/12/03 09:59:44;;;;;;;23.60;14.70;;;3.50;99.90;;;;;;5024795;28;20423;-74
2022/12/03 10:02:23;;;;;;;23.10;14.45;;;3.40;99.90;;;;;;4996744;28;20411;-74
2022/12/03 10:04:48;;;;;;;27.15;15.20;;;3.40;99.90;;;;;;4993858;28;20412;-74
2022/12/03 10:07:14;;;;;;;25.35;14.80;;;3.40;99.90;;;;;;5005528;28;21402;-74
2022/12/03 10:09:40;;;;;;;22.52;13.75;;;3.40;99.90;;;;;;5033185;28;20507;-74
2022/12/03 10:12:11;;;;;;;23.95;14.23;;;3.40;99.90;;;;;;5033322;28;20420;-74
2022/12/03 10:14:37;;;;;;;23.75;13.80;;;3.40;99.90;;;;;;5030993;28;20853;-74
2022/12/03 10:17:04;;;;;;;24.08;13.68;;;3.50;99.90;;;;;;5013532;28;20473;-73
2022/12/03 10:19:31;;;;;;;26.27;14.53;;;3.50;99.90;;;;;;5024374;28;20403;-75
2022/12/03 10:21:57;;;;;;;23.45;13.90;;;3.50;99.90;;;;;;5034194;28;20461;-73
2022/12/03 10:24:25;;;;;;;25.20;14.15;;;3.60;99.90;;;;;;5013133;28;20461;-74
2022/12/03 10:26:52;;;;;;;22.58;14.18;;;3.50;99.90;;;;;;5030479;28;20478;-72
2022/12/03 10:29:21;;;;;;;24.20;14.43;;;3.50;99.90;;;;;;5038325;28;20403;-73
2022/12/03 10:31:59;;;;;;;23.02;13.93;;;3.60;99.90;;;;;;5034381;28;20413;-73
2022/12/03 10:34:29;;;;;;;23.95;14.52;;;3.60;99.90;;;;;;5005532;28;20492;-73
2022/12/03 10:37:16;;;;;;;27.40;15.07;;;3.60;99.90;;;;;;5032947;28;20451;-73
2022/12/03 10:40:00;;;;;;;25.33;14.57;;;3.70;99.90;;;;;;5021362;28;20432;-74
2022/12/03 10:42:31;;;;;;;25.33;14.85;;;3.60;99.90;;;;;;5025544;28;20475;-74
2022/12/03 10:45:23;;;;;;;22.23;14.55;;;3.60;99.90;;;;;;5022244;28;20414;-73
2022/12/03 10:48:20;;;;;;;23.73;13.88;;;3.60;99.90;;;;;;5012513;28;20413;-73
2022/12/03 10:50:48;;;;;;;23.97;14.17;;;3.60;99.90;;;;;;5030480;28;20429;-73
2022/12/03 10:53:14;;;;;;;22.92;14.38;;;3.60;99.90;;;;;;5039851;28;20408;-73
2022/12/03 10:55:42;;;;;;;26.00;15.82;;;3.60;99.90;;;;;;5040312;28;20403;-73
2022/12/03 10:58:29;;;;;;;25.07;15.33;;;3.60;99.90;;;;;;5030027;28;20402;-73
2022/12/03 11:00:56;;;;;;;22.75;14.30;;;3.60;99.90;;;;;;5035281;28;20593;-73
2022/12/03 11:03:27;;;;;;;24.73;14.45;;;3.60;99.90;;;;;;5021476;28;20417;-73
2022/12/03 11:05:54;;;;;;;25.48;15.52;;;3.70;99.90;;;;;;5014379;28;20471;-73
2022/12/03 11:08:22;;;;;;;25.88;14.75;;;3.70;99.90;;;;;;5032815;28;20415;-73
2022/12/03 11:11:18;;;;;;;25.33;14.73;;;3.70;99.90;;;;;;5036181;28;20410;-73
2022/12/03 11:14:10;;;;;;;24.02;14.32;;;3.70;99.90;;;;;;5033696;28;20964;-73
2022/12/03 11:16:38;;;;;;;22.25;14.48;;;3.80;99.90;;;;;;5025775;28;20415;-73
2022/12/03 11:19:12;;;;;;;24.08;15.52;;;3.80;99.90;;;;;;5033057;28;20510;-73
2022/12/03 11:22:03;;;;;;;25.33;15.00;;;3.80;99.90;;;;;;4999067;28;20439;-73
2022/12/03 11:24:30;;;;;;;25.67;15.63;;;3.80;99.90;;;;;;5033464;28;20921;-73
2022/12/03 11:26:56;;;;;;;25.20;15.73;;;3.90;99.90;;;;;;5028691;28;20917;-73
2022/12/03 11:29:47;;;;;;;23.75;14.73;;;3.90;99.90;;;;;;5033316;28;20485;-73
2022/12/03 11:32:39;;;;;;;24.80;15.30;;;3.90;99.90;;;;;;5015972;28;20564;-73
2022/12/03 11:35:23;;;;;;;23.67;14.68;;;4.00;99.90;;;;;;5015949;28;20777;-73
2022/12/03 11:37:49;;;;;;;25.65;15.57;;;4.00;99.90;;;;;;5015846;28;20423;-73
2022/12/03 11:40:15;;;;;;;26.60;16.80;;;4.00;99.90;;;;;;5023736;28;20438;-73
2022/12/03 11:42:41;;;;;;;24.80;15.77;;;4.00;99.90;;;;;;5031001;28;20457;-73
2022/12/03 11:45:09;;;;;;;26.55;16.48;;;4.00;99.90;;;;;;4995303;28;20404;-73
2022/12/03 11:47:57;;;;;;;27.42;16.20;;;4.00;99.90;;;;;;5034032;28;20431;-73
2022/12/03 11:50:48;;;;;;;26.45;15.73;;;4.00;99.90;;;;;;5019141;28;20423;-73
2022/12/03 11:53:25;;;;;;;24.15;14.90;;;4.00;99.90;;;;;;5028275;28;20805;-72
2022/12/03 11:56:09;;;;;;;24.40;14.93;;;4.00;99.90;;;;;;5037200;28;20407;-73
2022/12/03 11:58:37;;;;;;;26.15;15.85;;;3.90;99.90;;;;;;5030740;28;20476;-73
2022/12/03 12:01:05;;;;;;;26.98;15.88;;;3.90;99.90;;;;;;5037841;28;20465;-73
2022/12/03 12:03:48;;;;;;;25.20;15.63;;;3.90;99.90;;;;;;4996551;28;20407;-73
2022/12/03 12:06:19;;;;;;;26.60;16.13;;;3.90;99.90;;;;;;5012933;28;20413;-73
2022/12/03 12:08:51;;;;;;;27.45;16.95;;;3.90;99.90;;;;;;5000217;28;20489;-73
2022/12/03 12:11:24;;;;;;;27.33;16.92;;;3.90;99.90;;;;;;5029965;28;20462;-73
2022/12/03 12:14:00;;;;;;;24.42;15.65;;;3.90;99.90;;;;;;5012733;28;20927;-72
2022/12/03 12:16:51;;;;;;;25.50;16.10;;;3.90;99.90;;;;;;5028584;28;20403;-72
2022/12/03 12:19:26;;;;;;;24.83;16.00;;;3.90;99.90;;;;;;5027099;28;20435;-72
2022/12/03 12:21:52;;;;;;;24.33;15.25;;;3.90;99.90;;;;;;4994683;28;20913;-73
2022/12/03 12:24:50;;;;;;;26.52;16.33;;;3.90;99.90;;;;;;5016618;28;20467;-72
2022/12/03 12:27:43;;;;;;;24.83;15.57;;;3.90;99.90;;;;;;5011449;28;20434;-73
2022/12/03 12:30:14;;;;;;;27.98;16.67;;;3.90;99.90;;;;;;5037401;28;20487;-72
2022/12/03 12:32:58;;;;;;;27.95;16.50;;;3.90;99.90;;;;;;5032855;28;20403;-73
2022/12/03 12:35:31;;;;;;;26.35;16.08;;;3.90;99.90;;;;;;5033009;28;20417;-72
2022/12/03 12:38:18;;;;;;;27.20;16.88;;;3.90;99.90;;;;;;5022996;28;20401;-74
2022/12/03 12:40:48;;;;;;;26.75;16.70;;;3.90;99.90;;;;;;5033174;28;20453;-73
2022/12/03 12:43:23;;;;;;;26.33;16.65;;;3.90;99.90;;;;;;5033546;28;20405;-73
2022/12/03 12:45:50;;;;;;;25.77;17.02;;;3.90;99.90;;;;;;5033511;28;20514;-74
2022/12/03 12:48:20;;;;;;;24.50;15.75;;;4.00;99.90;;;;;;5005422;28;20415;-74
2022/12/03 12:50:49;;;;;;;26.00;15.98;;;3.90;99.90;;;;;;5033631;28;20834;-74
2022/12/03 12:53:28;;;;;;;31.45;22.80;;;3.90;99.90;;;;;;5026935;28;20449;-72
2022/12/03 12:56:23;;;;;;;26.02;16.77;;;3.90;99.90;;;;;;5025468;28;20494;-72
2022/12/03 12:58:49;;;;;;;27.00;16.85;;;3.80;99.90;;;;;;5011869;28;20901;-72
2022/12/03 13:01:42;;;;;;;25.98;16.08;;;3.80;99.90;;;;;;5030629;28;20466;-72
2022/12/03 13:04:20;;;;;;;26.50;16.80;;;3.80;99.90;;;;;;5027469;28;20821;-73
2022/12/03 13:06:52;;;;;;;25.92;17.05;;;3.70;99.90;;;;;;5030851;28;20829;-73
2022/12/03 13:09:25;;;;;;;27.15;17.38;;;3.80;99.90;;;;;;5016277;28;20431;-73
2022/12/03 13:12:06;;;;;;;24.53;16.13;;;3.80;99.90;;;;;;4994017;28;20411;-73